»·PEaware :: BADGR14 KABQ-KFMN

BADGR14 :: KABQ-KFMN

FLIGHT INFORMATION

Flight Status: Arrived
Operator: Unknown
More flights by this operator :: More flights under this callsign
Pilot: Jaydevsinh Z. (22218)
Aircraft: BEECH AIRCRAFT T-6A TEXAN
(TEX2)
More flights by this aircraft type
Origin: KABQ Albuquerque Intl Sunport
United States
Destination: KFMN Four Corners Regl
United States
More flights between these airports :: More routes between these airports
Route: +LARGO3 RSK
File this flight plan on PilotEdge
Remarks:
Altitude:
(Current/Filed)
0ft
Speed:
(Current/Filed)
0kts
Departed: 12-Jun-20 10:30 AM
Arrived: 12-Jun-20 11:07 AM
Distance/Time
Traveled:
129nm/0:36
Distance/Time
To Go:
Arrived

Flight Plot

Page will automatically refresh every two minutes.

Flight plan parsing failed; only flown route is shown


Map Options




Map Legend


Flown Route
Filed Route
Departure Airport
Arrival Airport
Navaid (VOR, NDB)
Fix

Horizontal Profiles

Position Reports

Time Latitude Longitude Heading Altitude Ground
Speed
12-Jun-20 10:17 35.036599 -106.617445 138 5311ft 0kts
12-Jun-20 10:18 35.036599 -106.617445 138 5311ft 0kts
12-Jun-20 10:20 35.036599 -106.617445 138 5311ft 0kts
12-Jun-20 10:21 35.036599 -106.617445 138 5311ft 0kts
12-Jun-20 10:22 35.035580 -106.617477 229 5311ft 10kts
12-Jun-20 10:23 35.033474 -106.619193 224 5309ft 10kts
12-Jun-20 10:24 35.030110 -106.623260 224 5309ft 15kts
12-Jun-20 10:25 35.025125 -106.629276 224 5297ft 24kts
12-Jun-20 10:26 35.023302 -106.631353 190 5285ft 0kts
12-Jun-20 10:27 35.022872 -106.631151 138 5286ft 0kts
12-Jun-20 10:28 35.022872 -106.631151 138 5286ft 0kts
12-Jun-20 10:29 35.022872 -106.631150 138 5286ft 0kts
12-Jun-20 10:30 35.030086 -106.621058 42 5416ft 138kts
12-Jun-20 10:31 35.065902 -106.617510 297 7857ft 186kts
12-Jun-20 10:32 35.098684 -106.667434 318 10712ft 204kts
12-Jun-20 10:33 35.141247 -106.711787 318 13993ft 204kts
12-Jun-20 10:34 35.184337 -106.757410 319 17088ft 212kts
12-Jun-20 10:35 35.229143 -106.804781 318 19833ft 216kts
12-Jun-20 10:36 35.287958 -106.849249 344 19920ft 278kts
12-Jun-20 10:37 35.366433 -106.872654 345 19861ft 294kts
12-Jun-20 10:38 35.446835 -106.894890 348 19857ft 287kts
12-Jun-20 10:39 35.524341 -106.910530 351 19888ft 278kts
12-Jun-20 10:40 35.600857 -106.926038 349 20021ft 277kts
12-Jun-20 10:40 35.664430 -106.940639 349 19941ft 281kts
12-Jun-20 10:42 35.754173 -106.959718 350 19911ft 281kts
12-Jun-20 10:42 35.818576 -106.972469 350 19908ft 280kts
12-Jun-20 10:43 35.895676 -106.985587 352 19871ft 282kts
12-Jun-20 10:44 35.973231 -106.995720 351 20024ft 276kts
12-Jun-20 10:45 36.026775 -107.059547 305 19994ft 280kts
12-Jun-20 10:46 36.073244 -107.137153 308 19952ft 282kts
12-Jun-20 10:47 36.122730 -107.211934 310 19985ft 280kts
12-Jun-20 10:48 36.173298 -107.285814 311 19960ft 281kts
12-Jun-20 10:49 36.223549 -107.359626 309 19976ft 280kts
12-Jun-20 10:50 36.274156 -107.433095 310 20041ft 279kts
12-Jun-20 10:51 36.328377 -107.502187 331 19656ft 284kts
12-Jun-20 10:52 36.395624 -107.550788 330 17716ft 278kts
12-Jun-20 10:53 36.462034 -107.602237 328 15656ft 277kts
12-Jun-20 10:54 36.528201 -107.651733 329 13443ft 276kts
12-Jun-20 10:55 36.594148 -107.700533 330 11497ft 274kts
12-Jun-20 10:56 36.660861 -107.748956 330 9442ft 276kts
12-Jun-20 10:57 36.710623 -107.803301 289 9237ft 217kts
12-Jun-20 10:58 36.729267 -107.868905 289 9245ft 190kts
12-Jun-20 10:59 36.743894 -107.929968 272 9223ft 180kts
12-Jun-20 11:00 36.746457 -107.983049 272 9119ft 127kts
12-Jun-20 11:01 36.745160 -108.026527 266 8627ft 128kts
12-Jun-20 11:02 36.744341 -108.073045 267 7881ft 135kts
12-Jun-20 11:03 36.743508 -108.119336 267 7127ft 131kts
12-Jun-20 11:04 36.742819 -108.164101 268 6448ft 125kts
12-Jun-20 11:05 36.741839 -108.207393 268 5712ft 124kts
12-Jun-20 11:06 36.740813 -108.226304 177 5507ft 1kts
12-Jun-20 11:07 36.740103 -108.227564 146 5507ft 9kts

Navigation Log

Ident Type
Flight plan parsing failed, navigation log unavailable